Wetterdaten: Woche 14.07.03 - 20.07.03 (KW29)
Datum Zeit Temperatur Luftfeuchte Luftdruck Regenmenge Wind Richtung Taupunkt Windchill
14.07.2003 00:00 19.3 C 55 % 1015.9 hPa 0.0 l/m 0.2 km/h (0 Bft) N 10.1 C 19.3 C
14.07.2003 01:00 18.7 C 61 % 1015.9 hPa 0.0 l/m 0.4 km/h (0 Bft) O-SO 11.0 C 18.7 C
14.07.2003 02:00 17.4 C 66 % 1015.9 hPa 0.0 l/m 1.6 km/h (1 Bft) O 10.8 C 17.4 C
14.07.2003 03:00 17.6 C 61 % 1015.6 hPa 0.0 l/m 2.7 km/h (1 Bft) O-SO 9.9 C 17.6 C
14.07.2003 04:00 16.4 C 67 % 1014.8 hPa 0.0 l/m 3.9 km/h (1 Bft) O-SO 10.3 C 16.4 C
14.07.2003 05:00 15.5 C 67 % 1015.1 hPa 0.0 l/m 4.7 km/h (1 Bft) O-SO 9.4 C 15.5 C
14.07.2003 06:00 14.9 C 71 % 1015.6 hPa 0.0 l/m 1.3 km/h (1 Bft) O-SO 9.6 C 14.9 C
14.07.2003 07:00 16.8 C 60 % 1015.6 hPa 0.0 l/m 1.0 km/h (0 Bft) O-SO 9.0 C 16.8 C
14.07.2003 08:00 19.1 C 51 % 1015.6 hPa 0.0 l/m 7.2 km/h (2 Bft) O-SO 8.8 C 19.1 C
14.07.2003 09:00 21.2 C 46 % 1015.1 hPa 0.0 l/m 7.7 km/h (2 Bft) O-SO 9.2 C 21.2 C
14.07.2003 10:00 23.7 C 40 % 1014.8 hPa 0.0 l/m 11.4 km/h (2 Bft) O-SO 9.5 C 23.7 C
14.07.2003 11:00 26.1 C 35 % 1014.0 hPa 0.0 l/m 22.2 km/h (4 Bft) O-SO 9.5 C 26.1 C
14.07.2003 12:00 27.7 C 33 % 1013.8 hPa 0.0 l/m 21.4 km/h (4 Bft) O-SO 9.8 C 27.7 C
14.07.2003 13:00 29.4 C 31 % 1013.2 hPa 0.0 l/m 20.9 km/h (4 Bft) O-SO 10.5 C 29.4 C
14.07.2003 14:00 30.5 C 30 % 1012.8 hPa 0.0 l/m 14.7 km/h (3 Bft) O-SO 10.8 C 30.5 C
14.07.2003 15:00 31.0 C 29 % 1012.5 hPa 0.0 l/m 20.9 km/h (4 Bft) O-SO 10.8 C 31.0 C
14.07.2003 16:00 31.1 C 28 % 1011.7 hPa 0.0 l/m 10.3 km/h (2 Bft) O-SO 10.3 C 31.1 C
14.07.2003 17:00 31.0 C 27 % 1011.7 hPa 0.0 l/m 19.5 km/h (3 Bft) O-SO 9.9 C 31.0 C
14.07.2003 18:00 30.1 C 28 % 1011.3 hPa 0.0 l/m 20.0 km/h (4 Bft) O-SO 9.5 C 30.1 C
14.07.2003 19:00 29.0 C 28 % 1011.1 hPa 0.0 l/m 15.3 km/h (3 Bft) O-SO 8.6 C 29.0 C
14.07.2003 20:00 27.4 C 31 % 1011.7 hPa 0.0 l/m 2.6 km/h (1 Bft) O-SO 8.8 C 27.4 C
14.07.2003 21:00 24.9 C 34 % 1011.7 hPa 0.0 l/m 0.6 km/h (0 Bft) N-NO 8.0 C 24.9 C
14.07.2003 22:00 22.8 C 40 % 1011.9 hPa 0.0 l/m 1.0 km/h (0 Bft) N 8.4 C 22.8 C
14.07.2003 23:00 19.7 C 50 % 1012.7 hPa 0.0 l/m 0.0 km/h (0 Bft) N 9.0 C 19.7 C
15.07.2003 00:00 18.9 C 53 % 1012.8 hPa 0.0 l/m 0.0 km/h (0 Bft) N 9.1 C 18.9 C
15.07.2003 01:00 17.8 C 51 % 1012.8 hPa 0.0 l/m 0.0 km/h (0 Bft) N 7.6 C 17.8 C
15.07.2003 02:00 16.3 C 57 % 1012.8 hPa 0.0 l/m 0.0 km/h (0 Bft) N 7.9 C 16.3 C
15.07.2003 03:00 15.6 C 63 % 1012.8 hPa 0.0 l/m 0.0 km/h (0 Bft) N 8.5 C 15.6 C
15.07.2003 04:00 14.7 C 66 % 1012.8 hPa 0.0 l/m 0.0 km/h (0 Bft) N 8.5 C 14.7 C
15.07.2003 05:00 14.5 C 67 % 1012.8 hPa 0.0 l/m 0.0 km/h (0 Bft) N 8.5 C 14.5 C
15.07.2003 06:00 14.7 C 69 % 1012.8 hPa 0.0 l/m 0.0 km/h (0 Bft) N 9.2 C 14.7 C
15.07.2003 07:00 16.5 C 62 % 1012.8 hPa 0.0 l/m 0.5 km/h (0 Bft) SO 9.3 C 16.5 C
15.07.2003 08:00 18.7 C 54 % 1012.8 hPa 0.0 l/m 0.5 km/h (0 Bft) W-NW 9.2 C 18.7 C
15.07.2003 09:00 21.2 C 44 % 1012.8 hPa 0.0 l/m 3.1 km/h (1 Bft) O-SO 8.5 C 21.2 C
15.07.2003 10:00 23.5 C 38 % 1012.8 hPa 0.0 l/m 1.3 km/h (1 Bft) SO 8.4 C 23.5 C
15.07.2003 11:00 26.2 C 35 % 1012.7 hPa 0.0 l/m 3.1 km/h (1 Bft) SO 9.7 C 26.2 C
15.07.2003 12:00 29.3 C 30 % 1011.7 hPa 0.0 l/m 4.6 km/h (1 Bft) NW 9.9 C 29.3 C
15.07.2003 13:00 31.7 C 26 % 1011.7 hPa 0.0 l/m 5.1 km/h (1 Bft) NW 9.9 C 31.7 C
15.07.2003 14:00 33.2 C 25 % 1011.0 hPa 0.0 l/m 6.6 km/h (2 Bft) W-NW 10.5 C 33.2 C
15.07.2003 15:00 34.3 C 25 % 1010.7 hPa 0.0 l/m 5.4 km/h (1 Bft) W-NW 11.5 C 34.3 C
15.07.2003 16:00 34.9 C 26 % 1010.4 hPa 0.0 l/m 2.9 km/h (1 Bft) O-NO 12.6 C 34.9 C
15.07.2003 17:00 34.7 C 27 % 1009.7 hPa 0.0 l/m 2.4 km/h (1 Bft) W-NW 12.9 C 34.7 C
15.07.2003 18:00 34.4 C 27 % 1009.2 hPa 0.0 l/m 1.5 km/h (1 Bft) SO 12.6 C 34.4 C
15.07.2003 19:00 32.9 C 31 % 1009.2 hPa 0.0 l/m 5.4 km/h (1 Bft) SO 13.3 C 32.9 C
15.07.2003 20:00 31.5 C 37 % 1009.7 hPa 0.0 l/m 9.0 km/h (2 Bft) O-SO 15.1 C 31.5 C
15.07.2003 21:00 28.0 C 44 % 1009.7 hPa 0.0 l/m 6.8 km/h (2 Bft) O-SO 14.5 C 28.0 C
15.07.2003 22:00 25.9 C 47 % 1009.9 hPa 0.0 l/m 5.8 km/h (2 Bft) O-SO 13.7 C 25.9 C
15.07.2003 23:00 24.1 C 53 % 1010.5 hPa 0.0 l/m 2.0 km/h (1 Bft) O-SO 13.8 C 24.1 C
16.07.2003 00:00 22.9 C 57 % 1010.7 hPa 0.0 l/m 5.3 km/h (1 Bft) O-SO 14.0 C 22.9 C
16.07.2003 01:00 21.1 C 62 % 1010.5 hPa 0.0 l/m 2.9 km/h (1 Bft) O-SO 13.6 C 21.1 C
16.07.2003 02:00 19.6 C 70 % 1010.7 hPa 0.0 l/m 2.1 km/h (1 Bft) O-SO 13.8 C 19.6 C
16.07.2003 03:00 18.7 C 74 % 1010.7 hPa 0.0 l/m 1.8 km/h (1 Bft) O-SO 14.0 C 18.7 C
16.07.2003 04:00 17.8 C 79 % 1010.7 hPa 0.0 l/m 3.3 km/h (1 Bft) O-SO 14.2 C 17.8 C
16.07.2003 05:00 17.0 C 84 % 1010.4 hPa 0.0 l/m 1.3 km/h (1 Bft) O-SO 14.3 C 17.0 C
16.07.2003 06:00 17.0 C 84 % 1010.7 hPa 0.0 l/m 1.7 km/h (1 Bft) O-SO 14.2 C 17.0 C
16.07.2003 07:00 19.0 C 76 % 1010.7 hPa 0.0 l/m 0.0 km/h (0 Bft) SO 14.7 C 19.0 C
16.07.2003 08:00 21.1 C 65 % 1010.7 hPa 0.0 l/m 0.6 km/h (0 Bft) W-NW 14.4 C 21.1 C
16.07.2003 09:00 23.7 C 59 % 1010.7 hPa 0.0 l/m 0.9 km/h (0 Bft) S-SW 15.0 C 23.7 C
16.07.2003 10:00 26.8 C 47 % 1010.6 hPa 0.0 l/m 1.1 km/h (1 Bft) W-NW 14.6 C 26.8 C
16.07.2003 11:00 29.0 C 41 % 1009.7 hPa 0.0 l/m 0.4 km/h (0 Bft) O 14.3 C 29.0 C
16.07.2003 12:00 31.3 C 36 % 1008.7 hPa 0.0 l/m 12.2 km/h (2 Bft) O-SO 14.4 C 31.3 C
16.07.2003 13:00 32.8 C 30 % 1008.2 hPa 0.0 l/m 8.5 km/h (2 Bft) O-SO 12.7 C 32.8 C
16.07.2003 14:00 29.2 C 38 % 1008.6 hPa 0.0 l/m 22.9 km/h (4 Bft) NW 13.0 C 29.2 C
16.07.2003 15:00 26.5 C 52 % 1009.0 hPa 0.0 l/m 16.5 km/h (3 Bft) NW 15.7 C 26.5 C
16.07.2003 16:00 27.0 C 43 % 1010.1 hPa 0.0 l/m 33.2 km/h (5 Bft) NW 13.5 C 27.0 C
16.07.2003 17:00 21.4 C 80 % 1012.1 hPa 0.9 l/m 10.7 km/h (2 Bft) SO 17.6 C 21.4 C
16.07.2003 18:00 22.1 C 80 % 1012.8 hPa 0.0 l/m 4.8 km/h (1 Bft) O-SO 18.5 C 22.1 C
16.07.2003 19:00 22.5 C 76 % 1013.2 hPa 0.0 l/m 4.0 km/h (1 Bft) SO 18.0 C 22.5 C
16.07.2003 20:00 22.9 C 72 % 1013.8 hPa 0.0 l/m 8.7 km/h (2 Bft) O-SO 17.6 C 22.9 C
16.07.2003 21:00 21.4 C 79 % 1013.9 hPa 0.3 l/m 0.0 km/h (0 Bft) N 17.7 C 21.4 C
16.07.2003 22:00 20.4 C 93 % 1014.7 hPa 0.3 l/m 0.0 km/h (0 Bft) N 19.2 C 20.4 C
16.07.2003 23:00 20.2 C 93 % 1015.4 hPa 0.0 l/m 5.5 km/h (1 Bft) O-SO 19.1 C 20.2 C
17.07.2003 00:00 20.1 C 94 % 1015.9 hPa 1.5 l/m 0.0 km/h (0 Bft) N 19.1 C 20.1 C
17.07.2003 01:00 19.7 C 99 % 1015.9 hPa 0.9 l/m 0.0 km/h (0 Bft) N 19.5 C 19.7 C
17.07.2003 02:00 18.9 C 100 % 1015.9 hPa 0.0 l/m 0.0 km/h (0 Bft) N 18.9 C 18.9 C
17.07.2003 03:00 19.1 C 100 % 1016.9 hPa 0.3 l/m 0.0 km/h (0 Bft) N 19.1 C 19.1 C
17.07.2003 04:00 19.2 C 100 % 1017.0 hPa 0.0 l/m 0.1 km/h (0 Bft) SO 19.2 C 19.2 C
17.07.2003 05:00 18.3 C 98 % 1018.0 hPa 0.0 l/m 8.4 km/h (2 Bft) NW 18.1 C 18.3 C
17.07.2003 06:00 18.3 C 83 % 1018.3 hPa 0.0 l/m 9.6 km/h (2 Bft) NW 15.4 C 18.3 C
17.07.2003 07:00 17.5 C 88 % 1019.0 hPa 0.3 l/m 10.8 km/h (2 Bft) NW 15.5 C 17.5 C
17.07.2003 08:00 16.7 C 92 % 1020.0 hPa 0.9 l/m 2.9 km/h (1 Bft) W-NW 15.3 C 16.7 C
17.07.2003 09:00 16.9 C 79 % 1020.1 hPa 0.0 l/m 3.0 km/h (1 Bft) NW 13.2 C 16.9 C
17.07.2003 10:00 17.4 C 78 % 1020.4 hPa 0.0 l/m 3.4 km/h (1 Bft) W-NW 13.6 C 17.4 C
17.07.2003 11:00 19.7 C 61 % 1021.1 hPa 0.0 l/m 18.2 km/h (3 Bft) NW 11.9 C 19.7 C
17.07.2003 12:00 20.9 C 55 % 1021.1 hPa 0.3 l/m 13.1 km/h (3 Bft) NW 11.5 C 20.9 C
17.07.2003 13:00 21.4 C 51 % 1021.1 hPa 0.0 l/m 15.6 km/h (3 Bft) NW 10.9 C 21.4 C
17.07.2003 14:00 21.4 C 51 % 1021.1 hPa 0.0 l/m 12.9 km/h (3 Bft) NW 10.7 C 21.4 C
17.07.2003 15:00 22.1 C 48 % 1021.1 hPa 0.0 l/m 12.4 km/h (3 Bft) NW 10.6 C 22.1 C
17.07.2003 16:00 23.7 C 42 % 1021.1 hPa 0.0 l/m 18.2 km/h (3 Bft) NW 9.8 C 23.7 C
17.07.2003 17:00 23.2 C 39 % 1021.1 hPa 0.0 l/m 16.6 km/h (3 Bft) NW 8.5 C 23.2 C
17.07.2003 18:00 24.1 C 36 % 1021.1 hPa 0.0 l/m 10.2 km/h (2 Bft) NW 8.2 C 24.1 C
17.07.2003 19:00 23.9 C 40 % 1021.1 hPa 0.0 l/m 13.0 km/h (3 Bft) NW 9.5 C 23.9 C
17.07.2003 20:00 21.9 C 45 % 1021.7 hPa 0.0 l/m 7.7 km/h (2 Bft) NW 9.5 C 21.9 C
17.07.2003 21:00 19.9 C 58 % 1022.1 hPa 0.0 l/m 0.4 km/h (0 Bft) S-SW 11.3 C 19.9 C
17.07.2003 22:00 18.3 C 67 % 1023.1 hPa 0.0 l/m 4.1 km/h (1 Bft) O-SO 12.0 C 18.3 C
17.07.2003 23:00 17.8 C 68 % 1023.2 hPa 0.0 l/m 1.9 km/h (1 Bft) O-SO 11.9 C 17.8 C
18.07.2003 00:00 17.5 C 72 % 1023.8 hPa 0.0 l/m 0.7 km/h (0 Bft) O-SO 12.5 C 17.5 C
18.07.2003 01:00 16.5 C 75 % 1023.3 hPa 0.0 l/m 0.0 km/h (0 Bft) N 12.1 C 16.5 C
18.07.2003 02:00 16.1 C 77 % 1024.2 hPa 0.0 l/m 0.0 km/h (0 Bft) N 11.9 C 16.1 C
18.07.2003 03:00 15.8 C 76 % 1024.2 hPa 0.0 l/m 0.0 km/h (0 Bft) N 11.5 C 15.8 C
18.07.2003 04:00 15.1 C 80 % 1024.2 hPa 0.0 l/m 0.0 km/h (0 Bft) N 11.6 C 15.1 C
18.07.2003 05:00 14.7 C 85 % 1024.2 hPa 0.0 l/m 3.6 km/h (1 Bft) O-SO 12.2 C 14.7 C
18.07.2003 06:00 14.9 C 83 % 1024.2 hPa 0.0 l/m 0.4 km/h (0 Bft) O-SO 12.0 C 14.9 C
18.07.2003 07:00 15.6 C 78 % 1024.2 hPa 0.0 l/m 0.0 km/h (0 Bft) N 11.7 C 15.6 C
18.07.2003 08:00 16.9 C 71 % 1024.2 hPa 0.0 l/m 0.2 km/h (0 Bft) NO 11.6 C 16.9 C
18.07.2003 09:00 19.4 C 60 % 1024.3 hPa 0.0 l/m 5.4 km/h (1 Bft) O-SO 11.3 C 19.4 C
18.07.2003 10:00 21.6 C 53 % 1024.2 hPa 0.0 l/m 7.6 km/h (2 Bft) O-SO 11.7 C 21.6 C
18.07.2003 11:00 23.4 C 49 % 1024.2 hPa 0.0 l/m 9.7 km/h (2 Bft) O-SO 11.9 C 23.4 C
18.07.2003 12:00 23.8 C 47 % 1024.2 hPa 0.0 l/m 8.9 km/h (2 Bft) O-SO 11.6 C 23.8 C
18.07.2003 13:00 26.2 C 40 % 1023.4 hPa 0.0 l/m 15.4 km/h (3 Bft) O-SO 11.4 C 26.2 C
18.07.2003 14:00 27.9 C 34 % 1023.1 hPa 0.0 l/m 11.6 km/h (2 Bft) O-SO 10.7 C 27.9 C
18.07.2003 15:00 28.2 C 35 % 1022.8 hPa 0.0 l/m 12.0 km/h (2 Bft) O-SO 11.2 C 28.2 C
18.07.2003 16:00 28.2 C 35 % 1022.4 hPa 0.0 l/m 15.0 km/h (3 Bft) O-SO 11.3 C 28.2 C
18.07.2003 17:00 28.1 C 35 % 1022.1 hPa 0.0 l/m 14.6 km/h (3 Bft) O-SO 11.2 C 28.1 C
18.07.2003 18:00 27.6 C 36 % 1022.1 hPa 0.0 l/m 15.5 km/h (3 Bft) O-SO 11.2 C 27.6 C
18.07.2003 19:00 26.3 C 39 % 1022.1 hPa 0.0 l/m 17.2 km/h (3 Bft) O-SO 11.1 C 26.3 C
18.07.2003 20:00 24.6 C 42 % 1022.1 hPa 0.0 l/m 10.3 km/h (2 Bft) O-SO 10.7 C 24.6 C
18.07.2003 21:00 21.4 C 49 % 1021.7 hPa 0.0 l/m 0.0 km/h (0 Bft) N 10.1 C 21.4 C
18.07.2003 22:00 18.3 C 61 % 1022.1 hPa 0.0 l/m 0.0 km/h (0 Bft) N 10.6 C 18.3 C
18.07.2003 23:00 16.4 C 70 % 1022.1 hPa 0.0 l/m 0.0 km/h (0 Bft) N 10.8 C 16.4 C
19.07.2003 00:00 15.5 C 75 % 1022.1 hPa 0.0 l/m 0.0 km/h (0 Bft) N 11.1 C 15.5 C
19.07.2003 01:00 14.8 C 79 % 1022.1 hPa 0.0 l/m 0.0 km/h (0 Bft) N 11.2 C 14.8 C
19.07.2003 02:00 14.2 C 84 % 1022.1 hPa 0.0 l/m 0.9 km/h (0 Bft) O-SO 11.4 C 14.2 C
19.07.2003 03:00 13.6 C 88 % 1022.1 hPa 0.0 l/m 2.5 km/h (1 Bft) O-SO 11.6 C 13.6 C
19.07.2003 04:00 13.2 C 88 % 1022.1 hPa 0.0 l/m 2.9 km/h (1 Bft) O-SO 11.3 C 13.2 C
19.07.2003 05:00 12.4 C 92 % 1022.1 hPa 0.0 l/m 0.5 km/h (0 Bft) O-SO 11.1 C 12.4 C
19.07.2003 06:00 12.3 C 94 % 1022.1 hPa 0.0 l/m 0.0 km/h (0 Bft) N 11.4 C 12.3 C
19.07.2003 07:00 14.2 C 86 % 1022.1 hPa 0.0 l/m 1.2 km/h (1 Bft) O-SO 11.8 C 14.2 C
19.07.2003 08:00 16.5 C 75 % 1022.1 hPa 0.0 l/m 0.1 km/h (0 Bft) W-NW 12.0 C 16.5 C
19.07.2003 09:00 20.0 C 59 % 1022.1 hPa 0.0 l/m 4.1 km/h (1 Bft) O-SO 11.8 C 20.0 C
19.07.2003 10:00 23.4 C 50 % 1022.0 hPa 0.0 l/m 14.4 km/h (3 Bft) O-SO 12.5 C 23.4 C
19.07.2003 11:00 25.4 C 44 % 1021.1 hPa 0.0 l/m 9.4 km/h (2 Bft) O-SO 12.2 C 25.4 C
19.07.2003 12:00 27.0 C 39 % 1021.0 hPa 0.0 l/m 4.4 km/h (1 Bft) O-SO 12.0 C 27.0 C
19.07.2003 13:00 29.1 C 35 % 1020.0 hPa 0.0 l/m 4.3 km/h (1 Bft) O-SO 11.9 C 29.1 C
19.07.2003 14:00 31.2 C 28 % 1019.5 hPa 0.0 l/m 6.1 km/h (2 Bft) SO 10.5 C 31.2 C
19.07.2003 15:00 32.7 C 27 % 1019.0 hPa 0.0 l/m 10.5 km/h (2 Bft) O-SO 11.2 C 32.7 C
19.07.2003 16:00 33.0 C 27 % 1018.5 hPa 0.0 l/m 4.0 km/h (1 Bft) W-NW 11.5 C 33.0 C
19.07.2003 17:00 32.8 C 27 % 1018.0 hPa 0.0 l/m 4.6 km/h (1 Bft) O-SO 11.3 C 32.8 C
19.07.2003 18:00 32.4 C 27 % 1018.0 hPa 0.0 l/m 0.6 km/h (0 Bft) W-NW 10.9 C 32.4 C
19.07.2003 19:00 31.3 C 28 % 1018.0 hPa 0.0 l/m 3.6 km/h (1 Bft) O-SO 10.7 C 31.3 C
19.07.2003 20:00 29.1 C 37 % 1018.0 hPa 0.0 l/m 10.8 km/h (2 Bft) O-SO 13.0 C 29.1 C
19.07.2003 21:00 26.1 C 44 % 1018.0 hPa 0.0 l/m 2.6 km/h (1 Bft) O-SO 12.9 C 26.1 C
19.07.2003 22:00 23.0 C 52 % 1018.0 hPa 0.0 l/m 3.2 km/h (1 Bft) O-SO 12.5 C 23.0 C
19.07.2003 23:00 20.6 C 61 % 1018.0 hPa 0.0 l/m 0.0 km/h (0 Bft) N 12.9 C 20.6 C
20.07.2003 00:00 19.9 C 67 % 1018.0 hPa 0.0 l/m 0.0 km/h (0 Bft) N 13.5 C 19.9 C
20.07.2003 01:00 18.3 C 72 % 1018.0 hPa 0.0 l/m 0.0 km/h (0 Bft) O-SO 13.2 C 18.3 C
20.07.2003 02:00 17.1 C 78 % 1018.0 hPa 0.0 l/m 0.8 km/h (0 Bft) O-SO 13.3 C 17.1 C
20.07.2003 03:00 16.0 C 84 % 1018.0 hPa 0.0 l/m 0.5 km/h (0 Bft) O-SO 13.2 C 16.0 C
20.07.2003 04:00 15.4 C 86 % 1018.0 hPa 0.0 l/m 0.3 km/h (0 Bft) O-SO 13.1 C 15.4 C
20.07.2003 05:00 14.6 C 91 % 1018.0 hPa 0.0 l/m 0.0 km/h (0 Bft) N 13.1 C 14.6 C
20.07.2003 06:00 15.1 C 88 % 1018.0 hPa 0.0 l/m 0.0 km/h (0 Bft) N 13.1 C 15.1 C
20.07.2003 07:00 17.2 C 78 % 1018.0 hPa 0.0 l/m 0.2 km/h (0 Bft) O-SO 13.3 C 17.2 C
20.07.2003 08:00 18.9 C 69 % 1018.0 hPa 0.0 l/m 0.0 km/h (0 Bft) N 13.1 C 18.9 C
20.07.2003 09:00 21.8 C 59 % 1017.9 hPa 0.0 l/m 0.3 km/h (0 Bft) SO 13.5 C 21.8 C
20.07.2003 10:00 24.8 C 49 % 1016.9 hPa 0.0 l/m 4.1 km/h (1 Bft) SO 13.4 C 24.8 C
20.07.2003 11:00 27.7 C 40 % 1016.9 hPa 0.0 l/m 10.4 km/h (2 Bft) SO 12.6 C 27.7 C
20.07.2003 12:00 30.3 C 32 % 1016.2 hPa 0.0 l/m 7.5 km/h (2 Bft) O-SO 11.8 C 30.3 C
20.07.2003 13:00 32.7 C 27 % 1015.4 hPa 0.0 l/m 7.6 km/h (2 Bft) O-SO 11.0 C 32.7 C
20.07.2003 14:00 35.3 C 25 % 1014.8 hPa 0.0 l/m 11.8 km/h (2 Bft) SO 12.3 C 35.3 C
20.07.2003 15:00 36.8 C 27 % 1013.9 hPa 0.0 l/m 12.2 km/h (2 Bft) O-SO 14.4 C 36.8 C
20.07.2003 16:00 36.0 C 27 % 1013.4 hPa 0.0 l/m 6.4 km/h (2 Bft) O-SO 14.0 C 36.0 C
20.07.2003 17:00 35.4 C 27 % 1012.8 hPa 0.0 l/m 3.1 km/h (1 Bft) O-SO 13.5 C 35.4 C
20.07.2003 18:00 34.7 C 27 % 1011.8 hPa 0.0 l/m 7.6 km/h (2 Bft) O-SO 12.9 C 34.7 C
20.07.2003 19:00 32.8 C 26 % 1011.7 hPa 0.0 l/m 7.8 km/h (2 Bft) O-SO 10.9 C 32.8 C
20.07.2003 20:00 29.8 C 32 % 1011.9 hPa 0.0 l/m 7.2 km/h (2 Bft) O-SO 11.3 C 29.8 C
20.07.2003 21:00 28.0 C 37 % 1012.8 hPa 0.0 l/m 3.5 km/h (1 Bft) O-SO 11.8 C 28.0 C
20.07.2003 22:00 28.5 C 37 % 1013.8 hPa 0.0 l/m 6.0 km/h (2 Bft) O-SO 12.2 C 28.5 C
20.07.2003 23:00 22.7 C 63 % 1014.7 hPa 0.9 l/m 7.4 km/h (2 Bft) O-SO 14.9 C 22.7 C
Min-Datum _ 19.07.03 14.07.03 16.07.03 - 14.07.03 - 14.07.03 19.07.03
_ Min-Zeit 05:54 14:29 13:35 - 00:02 - 21:50 05:54
Minimum _ 11.9 C 25 % 1007.6 hPa - 0.0 km/h (0 Bft) - 5.9 C 11.9 C
Max-Datum _ 20.07.03 17.07.03 18.07.03 17.07.03 16.07.03 - 17.07.03 20.07.03
_ Max-Zeit 15:24 01:18 09:09 00:48 15:11 - 01:18 15:24
Maximum _ 37.0 C 100 % 1025.2 hPa 1.5 l/m 56.6 km/h
NW (7 Bft)
- 20.1 C 37.0 C
Durchschnitt _ 22.9 C 56 % 1016.5 hPa #6.6 l/m 5.7 km/h (1 Bft) O-SO 12.2 C 22.9 C

Durchschnitt Minimum Temp.21.7 C
Durchschnitt Maximum Temp.24.0 C
© Kaiko 2003